New Richmond, OH (45157)

8:38 PM EDT on September 01, 2015 (GMT -0400)
Koehler Estates | | Change Station
CLOSE
Current Station
Personal Weather Station
Location: New Richmond, OH
Elevation: 863 ft
Nearby Weather Stations

Elev 863 ft 38.96 °N, 84.21 °W | Updated 44 seconds ago

Partly Cloudy
Partly Cloudy
77.0 °F
Feels Like 79 °F
N
0.0
Wind Variable Wind from SSE
Gusts 0.0 mph

Today
High -- | Low -- °F
--% Chance of Precip.
Yesterday
High -- | Low -- °F
Precip. -- in
7:05 AM 8:07 PM
Waning Gibbous, 85% visible
Pressure 30.10 in
Visibility 10.0 miles
Clouds Clear
Heat Index 79 °F
Dew Point 71 °F
Humidity 81%
Rainfall 0.00 in
Snow Depth Not available.
UV 0.0 out of 12
Pollen 10.60 out of 12
Air Quality Not available.
Flu Activity Not available.
METAR KI69 020034Z AUTO 00000KT 10SM CLR 27/19 A3010 RMK AO2 T02650190
Pressure 30.10 in
Visibility 10.0 miles
Clouds Clear
Heat Index 79 °F
Dew Point 71 °F
Humidity 81%
Rainfall 0.00 in
Snow Depth Not available.
UV 0.0 out of 12
Pollen 10.60 out of 12
Air Quality Not available.
Flu Activity Not available.
METAR KI69 020034Z AUTO 00000KT 10SM CLR 27/19 A3010 RMK AO2 T02650190

10-Day Weather Forecast

×

Almanac

Astronomy

Sep. 01, 2015 Rise Set
Actual Time
Civil Twilight
Nautical Twilight
Astronomical Twilight
Moon
Length of Visible Light
Length of Day
Tomorrow will be .
, % of the Moon is Illuminated

Today's Extremes

State Highs State Lows

Community

WunderPhotos

Upload Photos

1,851,657 photos uploaded!

WunderBlogs® & News

Nearby

Air Quality

  Air Quality AQ Index Pollutant
Not available.

Snow Depth

Station Depth Elevation

Earthquake Activity

City Distance Mag. Time & Date
Minimum magnitude displayed is 2.5.

Coastal Water Temperatures

Place Temperature

Stations

Nearby Weather Stations

Station Location Temp. Windchill Dew Point Humidity Wind Precip. Elev Updated Type